Time;durP1;ratioP1;P1;durP2;ratioP2;P2;SDS_P1;SDS_P2;PMS_P1;PMS_P2;Temp;Humidity;BMP_temperature;BMP_pressure;BME280_temperature;BME280_humidity;BME280_pressure;Samples;Min_cycle;Max_cycle;Signal;HPM_P1;HPM_P2
2021/01/25 00:01:55;;;;;;;0.90;0.50;;;15.30;65.30;;;;;;6339625;22;20433;-73
2021/01/25 00:04:21;;;;;;;1.30;0.40;;;15.30;65.30;;;;;;6338039;22;20310;-74
2021/01/25 00:06:46;;;;;;;0.47;0.43;;;15.30;65.30;;;;;;6340059;22;20023;-74
2021/01/25 00:09:17;;;;;;;0.40;0.40;;;15.30;65.30;;;;;;6339837;22;19995;-73
2021/01/25 00:11:42;;;;;;;0.50;0.50;;;15.30;65.30;;;;;;6339752;22;20003;-74
2021/01/25 00:14:11;;;;;;;0.55;0.43;;;15.30;65.30;;;;;;6339680;22;20019;-73
2021/01/25 00:16:41;;;;;;;0.47;0.30;;;15.30;65.30;;;;;;6339766;22;20052;-73
2021/01/25 00:19:12;;;;;;;0.60;0.40;;;15.30;65.30;;;;;;6337979;22;19995;-74
2021/01/25 00:21:37;;;;;;;1.80;0.52;;;15.30;65.40;;;;;;6339676;22;20014;-73
2021/01/25 00:24:04;;;;;;;0.55;0.50;;;15.30;65.40;;;;;;6339447;22;20030;-74
2021/01/25 00:26:35;;;;;;;0.40;0.40;;;15.30;65.40;;;;;;6339473;22;19998;-74
2021/01/25 00:29:01;;;;;;;0.65;0.45;;;15.30;65.40;;;;;;6339109;22;20007;-73
2021/01/25 00:31:27;;;;;;;0.57;0.40;;;15.30;65.40;;;;;;6339590;22;20330;-73
2021/01/25 00:33:52;;;;;;;0.50;0.30;;;15.30;65.40;;;;;;6339380;22;20310;-74
2021/01/25 00:36:18;;;;;;;0.40;0.40;;;15.20;65.50;;;;;;6339464;22;20006;-74
2021/01/25 00:38:48;;;;;;;0.93;0.50;;;15.30;65.40;;;;;;6339341;22;19995;-73
2021/01/25 00:41:18;;;;;;;1.75;0.38;;;15.30;65.50;;;;;;6339487;22;20002;-73
2021/01/25 00:43:48;;;;;;;0.90;0.50;;;15.30;65.40;;;;;;6339536;22;20082;-73
2021/01/25 00:46:14;;;;;;;1.55;0.50;;;15.30;65.50;;;;;;6311491;22;20358;-73
2021/01/25 00:48:40;;;;;;;1.05;0.57;;;15.30;65.50;;;;;;6311157;22;20009;-73
2021/01/25 00:51:06;;;;;;;0.30;0.30;;;15.30;65.50;;;;;;6339428;22;20002;-73
2021/01/25 00:53:37;;;;;;;0.95;0.50;;;15.30;65.50;;;;;;6339230;22;19998;-75
2021/01/25 00:56:06;;;;;;;0.45;0.35;;;15.20;65.40;;;;;;6339391;22;20006;-74
2021/01/25 00:58:35;;;;;;;1.63;0.40;;;15.20;65.50;;;;;;6311189;22;20375;-74
2021/01/25 01:01:01;;;;;;;0.55;0.30;;;15.20;65.50;;;;;;6338865;22;20408;-73
2021/01/25 01:03:38;;;;;;;0.30;0.30;;;15.30;65.50;;;;;;6338914;22;20006;-73
2021/01/25 01:06:03;;;;;;;0.88;0.43;;;15.30;65.50;;;;;;6339468;22;20002;-74
2021/01/25 01:08:34;;;;;;;0.40;0.40;;;15.20;65.50;;;;;;6339311;22;20332;-74
2021/01/25 01:10:59;;;;;;;0.50;0.45;;;15.20;65.50;;;;;;6339488;22;19999;-73
2021/01/25 01:13:25;;;;;;;0.60;0.32;;;15.20;65.50;;;;;;6339741;22;20405;-73
2021/01/25 01:15:55;;;;;;;1.10;0.70;;;15.30;65.40;;;;;;6337281;22;20336;-73
2021/01/25 01:18:21;;;;;;;0.40;0.40;;;15.20;65.40;;;;;;6338808;22;19999;-74
2021/01/25 01:20:48;;;;;;;0.43;0.30;;;15.30;65.40;;;;;;6311338;22;20018;-75
2021/01/25 01:23:16;;;;;;;0.80;0.50;;;15.20;65.40;;;;;;6337649;22;20078;-74
2021/01/25 01:25:42;;;;;;;0.47;0.30;;;15.30;65.40;;;;;;6339107;22;19999;-74
2021/01/25 01:28:12;;;;;;;0.50;0.32;;;15.30;65.40;;;;;;6337090;22;20011;-72
2021/01/25 01:30:50;;;;;;;0.75;0.60;;;15.30;65.40;;;;;;6339415;22;20325;-73
2021/01/25 01:33:18;;;;;;;0.50;0.40;;;15.20;65.40;;;;;;6311376;22;19999;-73
2021/01/25 01:35:44;;;;;;;;;;;15.30;65.40;;;;;;6339089;22;20024;-73
2021/01/25 01:38:11;;;;;;;1.00;0.40;;;15.30;65.40;;;;;;6338857;22;19925;-73
2021/01/25 01:40:42;;;;;;;1.03;0.60;;;15.30;65.40;;;;;;6339316;22;20010;-74
2021/01/25 01:43:12;;;;;;;1.63;0.55;;;15.30;65.40;;;;;;6339273;22;20077;-73
2021/01/25 01:45:37;;;;;;;1.65;0.40;;;15.30;65.30;;;;;;6338861;22;20056;-73
2021/01/25 01:48:10;;;;;;;1.70;0.50;;;15.30;65.30;;;;;;6336842;22;20007;-73
2021/01/25 01:50:36;;;;;;;0.50;0.50;;;15.30;65.30;;;;;;6311050;22;20036;-73
2021/01/25 01:53:06;;;;;;;0.60;0.30;;;15.30;65.30;;;;;;6338816;22;19995;-75
2021/01/25 01:55:36;;;;;;;0.70;0.47;;;15.30;65.20;;;;;;6311518;22;20082;-75
2021/01/25 01:58:03;;;;;;;0.55;0.40;;;15.30;65.20;;;;;;6311660;22;19999;-75
2021/01/25 02:00:40;;;;;;;0.60;0.50;;;15.30;65.20;;;;;;6338640;22;19998;-74
2021/01/25 02:03:15;;;;;;;0.30;0.27;;;15.30;65.20;;;;;;6311093;22;20498;-74
2021/01/25 02:05:42;;;;;;;0.60;0.40;;;15.30;65.20;;;;;;6338871;22;20037;-74
2021/01/25 02:08:12;;;;;;;0.65;0.30;;;15.30;65.20;;;;;;6339178;22;20006;-73
2021/01/25 02:10:43;;;;;;;0.40;0.40;;;15.30;65.10;;;;;;6339006;22;19999;-74
2021/01/25 02:13:16;;;;;;;0.52;0.40;;;15.30;65.20;;;;;;6337261;22;20433;-73
2021/01/25 02:16:11;;;;;;;0.63;0.40;;;15.30;65.20;;;;;;6338696;22;20003;-74
2021/01/25 02:18:37;;;;;;;0.40;0.30;;;15.30;65.20;;;;;;6338001;22;20018;-73
2021/01/25 02:21:08;;;;;;;0.60;0.40;;;15.30;65.20;;;;;;6338563;22;20085;-74
2021/01/25 02:24:05;;;;;;;0.63;0.40;;;15.30;65.30;;;;;;6339147;22;19999;-73
2021/01/25 02:26:58;;;;;;;0.50;0.37;;;15.30;65.30;;;;;;6338806;22;20011;-74
2021/01/25 02:29:46;;;;;;;0.40;0.40;;;15.20;65.30;;;;;;6338218;22;19998;-72
2021/01/25 02:32:16;;;;;;;0.80;0.40;;;15.20;65.30;;;;;;6337916;22;20498;-73
2021/01/25 02:34:43;;;;;;;1.10;0.50;;;15.20;65.40;;;;;;6310310;22;20003;-74
2021/01/25 02:37:16;;;;;;;0.60;0.52;;;15.20;65.30;;;;;;6310156;22;19995;-74
2021/01/25 02:39:46;;;;;;;0.50;0.40;;;15.20;65.30;;;;;;6337852;22;20003;-73
2021/01/25 02:42:16;;;;;;;0.50;0.45;;;15.20;65.30;;;;;;6338061;22;20324;-73
2021/01/25 02:44:43;;;;;;;0.88;0.57;;;15.20;65.40;;;;;;6337607;22;19998;-75
2021/01/25 02:47:10;;;;;;;0.40;0.30;;;15.20;65.40;;;;;;6337619;22;19999;-73
2021/01/25 02:49:41;;;;;;;0.85;0.40;;;15.20;65.40;;;;;;6336266;22;20397;-73
2021/01/25 02:52:06;;;;;;;1.80;0.50;;;15.20;65.40;;;;;;6337885;22;20022;-73
2021/01/25 02:54:33;;;;;;;0.80;0.30;;;15.20;65.50;;;;;;6337363;22;20209;-75
2021/01/25 02:57:04;;;;;;;0.60;0.55;;;15.20;65.50;;;;;;6338397;22;20017;-73
2021/01/25 02:59:34;;;;;;;0.88;0.40;;;15.20;65.50;;;;;;6338521;22;19999;-73
2021/01/25 03:02:00;;;;;;;1.05;0.45;;;15.20;65.50;;;;;;6338644;22;19999;-73
2021/01/25 03:04:26;;;;;;;0.80;0.60;;;15.20;65.50;;;;;;6337566;22;19998;-73
2021/01/25 03:06:52;;;;;;;0.50;0.30;;;15.20;65.50;;;;;;6338317;22;19995;-72
2021/01/25 03:09:18;;;;;;;1.30;0.60;;;15.10;65.60;;;;;;6338365;22;20002;-74
2021/01/25 03:11:43;;;;;;;0.98;0.50;;;15.10;65.60;;;;;;6338028;22;20367;-73
2021/01/25 03:14:10;;;;;;;0.82;0.50;;;15.10;65.50;;;;;;6338159;22;20371;-73
2021/01/25 03:16:39;;;;;;;0.40;0.40;;;15.20;65.60;;;;;;6338020;22;20028;-74
2021/01/25 03:19:12;;;;;;;1.15;0.40;;;15.10;65.60;;;;;;6309774;22;20007;-74
2021/01/25 03:21:48;;;;;;;0.93;0.43;;;15.10;65.60;;;;;;6337895;22;20025;-73
2021/01/25 03:24:17;;;;;;;1.08;0.50;;;15.10;65.60;;;;;;6337772;22;20325;-73
2021/01/25 03:26:48;;;;;;;0.65;0.38;;;15.10;65.60;;;;;;6309950;22;20010;-73
2021/01/25 03:29:20;;;;;;;1.10;0.50;;;15.10;65.70;;;;;;6338928;22;20003;-73
2021/01/25 03:32:03;;;;;;;0.47;0.30;;;15.10;65.70;;;;;;6338342;22;20056;-74
2021/01/25 03:34:29;;;;;;;0.43;0.20;;;15.10;65.70;;;;;;6338037;22;20022;-73
2021/01/25 03:36:58;;;;;;;0.60;0.22;;;15.10;65.60;;;;;;6337802;22;20002;-73
2021/01/25 03:39:28;;;;;;;0.70;0.47;;;15.10;65.70;;;;;;6337877;22;19999;-73
2021/01/25 03:41:59;;;;;;;0.40;0.40;;;15.10;65.70;;;;;;6336905;22;19992;-73
2021/01/25 03:44:37;;;;;;;1.58;0.68;;;15.10;65.70;;;;;;6338110;22;20086;-73
2021/01/25 03:47:07;;;;;;;0.63;0.40;;;15.10;65.70;;;;;;6337861;22;20064;-74
2021/01/25 03:49:33;;;;;;;0.80;0.52;;;15.00;65.70;;;;;;6337161;22;20010;-74
2021/01/25 03:51:59;;;;;;;0.60;0.30;;;15.10;65.70;;;;;;6337702;22;19999;-73
2021/01/25 03:54:27;;;;;;;0.88;0.45;;;15.10;65.70;;;;;;6337758;22;20368;-73
2021/01/25 03:56:53;;;;;;;0.60;0.30;;;15.10;65.70;;;;;;6337521;22;20003;-73
2021/01/25 03:59:23;;;;;;;0.30;0.30;;;15.10;65.60;;;;;;6337347;22;20375;-74
2021/01/25 04:01:50;;;;;;;1.08;0.50;;;15.20;65.60;;;;;;6337866;22;20069;-73
2021/01/25 04:04:16;;;;;;;0.30;0.30;;;15.10;65.50;;;;;;6337305;22;20003;-73
2021/01/25 04:06:42;;;;;;;0.90;0.60;;;15.20;65.40;;;;;;6338212;22;20076;-75
2021/01/25 04:09:12;;;;;;;0.90;0.60;;;15.20;65.30;;;;;;6336224;22;20499;-73
2021/01/25 04:11:44;;;;;;;0.13;0.13;;;15.20;65.30;;;;;;6336752;22;20089;-73
2021/01/25 04:14:10;;;;;;;0.80;0.25;;;15.20;65.20;;;;;;6337862;22;19994;-73
2021/01/25 04:16:35;;;;;;;0.22;0.22;;;15.20;65.20;;;;;;6336537;22;19995;-74
2021/01/25 04:19:07;;;;;;;0.40;0.40;;;15.30;65.20;;;;;;6336869;22;20002;-74
2021/01/25 04:21:33;;;;;;;0.30;0.30;;;15.20;65.10;;;;;;6337267;22;20029;-75
2021/01/25 04:24:03;;;;;;;0.28;0.22;;;15.30;65.10;;;;;;6337556;22;20030;-73
2021/01/25 04:26:28;;;;;;;0.68;0.43;;;15.30;65.00;;;;;;6337380;22;20003;-73
2021/01/25 04:28:54;;;;;;;0.40;0.32;;;15.30;65.00;;;;;;6337307;22;20041;-73
2021/01/25 04:31:24;;;;;;;0.30;0.30;;;15.30;65.00;;;;;;6337741;22;20003;-73
2021/01/25 04:33:55;;;;;;;0.60;0.40;;;15.30;65.00;;;;;;6337072;22;19998;-74
2021/01/25 04:36:25;;;;;;;0.47;0.35;;;15.30;65.00;;;;;;6337820;22;20062;-75
2021/01/25 04:38:56;;;;;;;1.58;0.32;;;15.30;65.00;;;;;;6338654;22;20301;-74
2021/01/25 04:41:22;;;;;;;0.52;0.40;;;15.30;64.90;;;;;;6339020;22;20440;-76
2021/01/25 04:43:48;;;;;;;0.40;0.40;;;15.30;65.00;;;;;;6339135;22;19999;-74
2021/01/25 04:46:14;;;;;;;0.30;0.30;;;15.30;65.00;;;;;;6339094;22;20078;-73
2021/01/25 04:48:45;;;;;;;0.28;0.20;;;15.30;65.00;;;;;;6311430;22;19998;-72
2021/01/25 04:51:16;;;;;;;0.85;0.47;;;15.20;65.00;;;;;;6310731;22;20102;-73
2021/01/25 04:53:47;;;;;;;0.43;0.30;;;15.30;65.10;;;;;;6336854;22;20017;-74
2021/01/25 04:56:18;;;;;;;0.63;0.40;;;15.20;65.10;;;;;;6339238;22;19998;-72
2021/01/25 04:58:44;;;;;;;0.38;0.30;;;15.20;65.10;;;;;;6311318;22;19999;-73
2021/01/25 05:01:11;;;;;;;0.98;0.50;;;15.20;65.20;;;;;;6338445;22;20010;-72
2021/01/25 05:03:39;;;;;;;0.32;0.32;;;15.20;65.20;;;;;;6338847;22;20417;-73
2021/01/25 05:06:10;;;;;;;0.93;0.47;;;15.20;65.20;;;;;;6338639;22;20030;-73
2021/01/25 05:08:40;;;;;;;0.55;0.40;;;15.20;65.30;;;;;;6338880;22;20326;-73
2021/01/25 05:11:14;;;;;;;0.38;0.38;;;15.20;65.30;;;;;;6337936;22;20455;-72
2021/01/25 05:13:45;;;;;;;0.35;0.32;;;15.10;65.40;;;;;;6339057;22;20018;-72
2021/01/25 05:16:21;;;;;;;0.52;0.30;;;15.20;65.40;;;;;;6337642;22;20014;-74
2021/01/25 05:19:04;;;;;;;0.80;0.40;;;15.10;65.40;;;;;;6338013;22;20003;-74
2021/01/25 05:21:51;;;;;;;0.60;0.40;;;15.10;65.40;;;;;;6289911;22;20110;-73
2021/01/25 05:24:17;;;;;;;0.73;0.50;;;15.10;65.40;;;;;;6307791;22;20473;-74
2021/01/25 05:26:53;;;;;;;1.23;0.45;;;15.10;65.40;;;;;;6307508;22;20030;-73
2021/01/25 05:29:26;;;;;;;0.90;0.50;;;15.10;65.50;;;;;;6280377;22;20003;-73
2021/01/25 05:31:57;;;;;;;0.30;0.30;;;15.10;65.50;;;;;;6307576;22;20049;-73
2021/01/25 05:34:33;;;;;;;0.40;0.38;;;15.00;65.50;;;;;;6307131;22;19999;-73
2021/01/25 05:37:03;;;;;;;0.77;0.40;;;15.10;65.50;;;;;;6305355;22;20000;-73
2021/01/25 05:39:32;;;;;;;0.25;0.20;;;15.00;65.50;;;;;;6307092;22;20048;-72
2021/01/25 05:42:02;;;;;;;0.50;0.38;;;15.10;65.50;;;;;;6305754;22;20083;-73
2021/01/25 05:44:32;;;;;;;0.73;0.35;;;15.10;65.50;;;;;;6306065;22;19999;-72
2021/01/25 05:47:14;;;;;;;0.40;0.40;;;15.10;65.50;;;;;;6307187;22;19999;-73
2021/01/25 05:49:47;;;;;;;0.40;0.40;;;15.10;65.50;;;;;;6305887;22;20425;-73
2021/01/25 05:52:15;;;;;;;1.02;0.47;;;15.10;65.50;;;;;;6307070;22;19996;-74
2021/01/25 05:54:42;;;;;;;0.50;0.50;;;15.10;65.50;;;;;;6305902;22;20003;-74
2021/01/25 05:57:07;;;;;;;0.77;0.40;;;15.10;65.50;;;;;;6306829;22;19999;-73
2021/01/25 05:59:33;;;;;;;0.60;0.50;;;15.10;65.50;;;;;;6307421;22;20052;-74
2021/01/25 06:02:01;;;;;;;0.30;0.30;;;15.10;65.50;;;;;;6307540;22;20368;-73
2021/01/25 06:04:27;;;;;;;0.43;0.40;;;15.00;65.50;;;;;;6307061;22;20049;-72
2021/01/25 06:07:05;;;;;;;0.60;0.40;;;15.00;65.50;;;;;;6280233;22;19995;-74
2021/01/25 06:09:53;;;;;;;1.10;0.50;;;15.00;65.50;;;;;;6307189;22;20053;-73
2021/01/25 06:12:38;;;;;;;0.35;0.25;;;15.00;65.40;;;;;;6307265;22;20079;-73
2021/01/25 06:15:08;;;;;;;0.90;0.60;;;15.10;65.50;;;;;;6306510;22;19996;-74
2021/01/25 06:17:40;;;;;;;0.20;0.20;;;15.10;65.50;;;;;;6307781;22;19999;-74
2021/01/25 06:20:36;;;;;;;0.38;0.30;;;15.10;65.50;;;;;;6278710;22;20056;-74
2021/01/25 06:23:03;;;;;;;0.73;0.45;;;15.10;65.40;;;;;;6307234;22;19995;-75
2021/01/25 06:25:29;;;;;;;0.38;0.38;;;15.10;65.30;;;;;;6307010;22;20006;-74
2021/01/25 06:28:08;;;;;;;0.32;0.32;;;15.10;65.30;;;;;;6307279;22;20421;-74
2021/01/25 06:30:41;;;;;;;0.32;0.32;;;15.10;65.20;;;;;;6306910;22;20074;-74
2021/01/25 06:33:14;;;;;;;0.20;0.20;;;15.20;65.20;;;;;;6306770;22;20325;-74
2021/01/25 06:35:41;;;;;;;0.20;0.20;;;15.20;65.10;;;;;;6305373;22;19999;-74
2021/01/25 06:38:14;;;;;;;0.30;0.30;;;15.20;65.10;;;;;;6306737;22;19995;-74
2021/01/25 06:40:47;;;;;;;0.35;0.35;;;15.20;65.00;;;;;;6307723;22;20077;-74
2021/01/25 06:43:18;;;;;;;0.52;0.40;;;15.20;64.90;;;;;;6306239;22;20011;-74
2021/01/25 06:45:46;;;;;;;0.20;0.20;;;15.30;64.90;;;;;;6305917;22;20421;-72
2021/01/25 06:48:19;;;;;;;0.68;0.25;;;15.30;64.80;;;;;;6306042;22;20001;-74
2021/01/25 06:50:47;;;;;;;0.50;0.30;;;15.30;64.80;;;;;;6306452;22;20030;-73
2021/01/25 06:53:17;;;;;;;0.85;0.30;;;15.30;64.70;;;;;;6306385;22;19995;-74
2021/01/25 06:56:00;;;;;;;0.55;0.25;;;15.30;64.70;;;;;;6306528;22;20023;-74
2021/01/25 06:58:33;;;;;;;0.85;0.50;;;15.30;64.60;;;;;;6304300;22;20007;-73
2021/01/25 07:01:22;;;;;;;0.40;0.30;;;15.30;64.60;;;;;;6306364;22;20052;-74
2021/01/25 07:03:55;;;;;;;0.20;0.20;;;15.30;64.60;;;;;;6294296;22;20007;-74
2021/01/25 07:06:22;;;;;;;0.70;0.47;;;15.30;64.60;;;;;;6306961;22;20034;-74
2021/01/25 07:08:56;;;;;;;0.30;0.30;;;15.30;64.50;;;;;;6278576;22;20003;-74
2021/01/25 07:11:26;;;;;;;0.40;0.32;;;15.30;64.50;;;;;;6307024;22;20048;-75
2021/01/25 07:13:53;;;;;;;0.50;0.47;;;15.30;64.60;;;;;;6306463;22;19999;-73
2021/01/25 07:16:19;;;;;;;0.40;0.35;;;15.30;64.60;;;;;;6306185;22;20418;-72
2021/01/25 07:18:49;;;;;;;0.35;0.35;;;15.30;64.60;;;;;;6304914;22;19991;-73
2021/01/25 07:21:22;;;;;;;0.20;0.20;;;15.30;64.60;;;;;;6304794;22;20353;-73
2021/01/25 07:23:52;;;;;;;0.68;0.40;;;15.30;64.70;;;;;;6306296;22;20004;-75
2021/01/25 07:26:19;;;;;;;0.40;0.40;;;15.30;64.70;;;;;;6306495;22;20031;-74
2021/01/25 07:28:48;;;;;;;0.88;0.30;;;15.30;64.70;;;;;;6303179;22;20006;-73
2021/01/25 07:31:16;;;;;;;0.28;0.28;;;15.30;64.80;;;;;;6300476;22;20414;-74
2021/01/25 07:33:46;;;;;;;0.50;0.45;;;15.20;64.80;;;;;;6302995;22;20023;-74
2021/01/25 07:36:22;;;;;;;0.80;0.30;;;15.20;64.80;;;;;;6303303;22;20000;-74
2021/01/25 07:38:52;;;;;;;0.32;0.28;;;15.20;64.90;;;;;;6275872;22;20112;-74
2021/01/25 07:41:32;;;;;;;0.47;0.40;;;15.20;64.90;;;;;;6303536;22;20006;-73
2021/01/25 07:44:00;;;;;;;0.57;0.50;;;15.20;64.90;;;;;;6298857;22;20027;-72
2021/01/25 07:46:31;;;;;;;0.90;0.40;;;15.20;64.90;;;;;;6303441;22;20007;-72
2021/01/25 07:49:00;;;;;;;0.63;0.40;;;15.20;65.00;;;;;;6303249;22;20141;-73
2021/01/25 07:51:49;;;;;;;0.82;0.40;;;15.20;65.00;;;;;;6302974;22;20011;-73
2021/01/25 07:54:31;;;;;;;0.65;0.45;;;15.20;65.00;;;;;;6302833;22;20017;-73
2021/01/25 07:57:02;;;;;;;0.30;0.30;;;15.20;65.00;;;;;;6303280;22;19996;-73
2021/01/25 07:59:38;;;;;;;0.50;0.40;;;15.20;65.00;;;;;;6302310;22;20082;-73
2021/01/25 08:02:09;;;;;;;0.70;0.25;;;15.10;65.00;;;;;;6303207;22;19995;-73
2021/01/25 08:04:40;;;;;;;0.40;0.30;;;15.20;65.00;;;;;;6291095;22;20075;-73
2021/01/25 08:07:06;;;;;;;0.38;0.38;;;15.10;65.00;;;;;;6303328;22;20609;-73
2021/01/25 08:09:37;;;;;;;0.30;0.30;;;15.20;65.00;;;;;;6276122;22;20007;-75
2021/01/25 08:12:07;;;;;;;0.40;0.30;;;15.20;65.00;;;;;;6304875;22;20420;-75
2021/01/25 08:14:38;;;;;;;0.65;0.30;;;15.10;65.00;;;;;;6305324;22;19995;-75
2021/01/25 08:17:18;;;;;;;0.28;0.28;;;15.10;65.00;;;;;;6305221;22;20006;-73
2021/01/25 08:20:01;;;;;;;0.30;0.30;;;15.20;65.00;;;;;;6304738;22;19995;-73
2021/01/25 08:22:54;;;;;;;0.40;0.40;;;15.20;65.00;;;;;;6304775;22;20167;-73
2021/01/25 08:25:22;;;;;;;0.57;0.40;;;15.20;64.90;;;;;;6304768;22;20325;-73
2021/01/25 08:28:06;;;;;;;0.40;0.38;;;15.20;64.90;;;;;;6305077;22;19995;-75
2021/01/25 08:30:39;;;;;;;0.63;0.40;;;15.20;64.90;;;;;;6303947;22;20304;-74
2021/01/25 08:33:08;;;;;;;0.52;0.40;;;15.20;64.90;;;;;;6304467;22;19995;-73
2021/01/25 08:35:51;;;;;;;0.60;0.40;;;15.20;64.90;;;;;;6304240;22;20005;-72
2021/01/25 08:38:49;;;;;;;0.30;0.30;;;15.10;64.90;;;;;;6279844;22;20334;-75
2021/01/25 08:41:28;;;;;;;0.40;0.20;;;15.20;64.90;;;;;;6308320;22;20445;-73
2021/01/25 08:44:00;;;;;;;0.28;0.20;;;15.20;64.80;;;;;;6308322;22;20015;-73
2021/01/25 08:46:32;;;;;;;0.63;0.30;;;15.20;64.70;;;;;;6307589;22;20007;-73
2021/01/25 08:49:22;;;;;;;0.20;0.20;;;15.20;64.60;;;;;;6307601;22;20064;-74
2021/01/25 08:52:02;;;;;;;0.47;0.45;;;15.20;64.60;;;;;;6308419;22;20003;-74
2021/01/25 08:54:45;;;;;;;0.47;0.40;;;15.30;64.50;;;;;;6307510;22;20002;-74
2021/01/25 08:57:18;;;;;;;0.40;0.30;;;15.30;64.40;;;;;;6307754;22;19996;-73
2021/01/25 08:59:47;;;;;;;0.38;0.30;;;15.30;64.20;;;;;;6307499;22;20113;-74
2021/01/25 09:02:17;;;;;;;0.40;0.40;;;15.30;64.20;;;;;;6307409;22;19999;-74
2021/01/25 09:04:58;;;;;;;0.88;0.30;;;15.30;64.10;;;;;;6307661;22;20000;-74
2021/01/25 09:07:24;;;;;;;0.30;0.30;;;15.30;64.10;;;;;;6307539;22;20010;-73
2021/01/25 09:10:03;;;;;;;0.30;0.30;;;15.40;64.10;;;;;;6307104;22;19999;-74
2021/01/25 09:12:33;;;;;;;0.22;0.22;;;15.40;64.10;;;;;;6294546;22;19995;-73
2021/01/25 09:15:12;;;;;;;0.30;0.30;;;15.40;64.10;;;;;;6307291;22;20006;-73
2021/01/25 09:17:38;;;;;;;0.40;0.40;;;15.40;64.00;;;;;;6307417;22;20060;-72
2021/01/25 09:20:06;;;;;;;0.70;0.50;;;15.40;64.00;;;;;;6307117;22;20070;-74
2021/01/25 09:22:38;;;;;;;;;;;15.40;63.90;;;;;;6307968;22;20003;-75
2021/01/25 09:25:09;;;;;;;0.20;0.20;;;15.40;63.90;;;;;;6306915;22;20352;-74
2021/01/25 09:27:44;;;;;;;0.30;0.30;;;15.50;63.90;;;;;;6307164;22;20400;-74
2021/01/25 09:30:19;;;;;;;0.52;0.47;;;15.40;63.80;;;;;;6307044;22;19999;-73
2021/01/25 09:32:50;;;;;;;0.50;0.32;;;15.40;63.80;;;;;;6306824;22;19999;-73
2021/01/25 09:35:17;;;;;;;0.32;0.30;;;15.50;63.80;;;;;;6305850;22;20285;-74
2021/01/25 09:37:43;;;;;;;0.45;0.38;;;15.40;63.80;;;;;;6306354;22;20029;-74
2021/01/25 09:40:24;;;;;;;0.20;0.20;;;15.50;63.80;;;;;;6279100;22;20037;-73
2021/01/25 09:42:57;;;;;;;0.60;0.30;;;15.40;63.80;;;;;;6306397;22;20007;-73
2021/01/25 09:45:23;;;;;;;0.17;0.17;;;15.50;63.80;;;;;;6307304;22;20013;-73
2021/01/25 09:47:48;;;;;;;11.32;1.27;;;15.50;63.80;;;;;;6305925;22;20035;-75
2021/01/25 09:50:19;;;;;;;0.40;0.32;;;15.50;63.80;;;;;;6305861;22;20346;-73
2021/01/25 09:52:48;;;;;;;0.43;0.30;;;15.40;63.80;;;;;;6305803;22;20022;-73
2021/01/25 09:55:17;;;;;;;0.30;0.30;;;15.40;63.70;;;;;;6307361;22;20496;-74
2021/01/25 09:57:43;;;;;;;0.30;0.22;;;15.40;63.80;;;;;;6306733;22;20085;-74
2021/01/25 10:00:11;;;;;;;0.40;0.40;;;15.40;63.80;;;;;;6254431;22;20007;-74
2021/01/25 10:02:42;;;;;;;0.20;0.20;;;15.40;63.80;;;;;;6306519;22;20000;-73
2021/01/25 10:05:10;;;;;;;0.55;0.40;;;15.40;63.90;;;;;;6307054;22;20010;-74
2021/01/25 10:07:35;;;;;;;0.20;0.20;;;15.40;63.90;;;;;;6306754;22;19999;-73
2021/01/25 10:10:11;;;;;;;0.63;0.40;;;15.40;63.90;;;;;;6304302;22;20068;-74
2021/01/25 10:12:42;;;;;;;0.40;0.32;;;15.40;63.90;;;;;;6280383;22;20000;-73
2021/01/25 10:15:10;;;;;;;0.47;0.32;;;15.40;63.90;;;;;;6307198;22;20019;-73
2021/01/25 10:17:41;;;;;;;;;;;15.30;64.00;;;;;;6278989;22;20003;-73
2021/01/25 10:20:07;;;;;;;0.88;0.30;;;15.30;64.00;;;;;;6278544;22;19978;-73
2021/01/25 10:22:33;;;;;;;0.50;0.38;;;15.30;64.10;;;;;;6306504;22;20003;-74
2021/01/25 10:25:02;;;;;;;1.63;0.32;;;15.30;64.10;;;;;;6306039;22;20018;-73
2021/01/25 10:27:35;;;;;;;0.43;0.30;;;15.30;64.00;;;;;;6306771;22;20003;-73
2021/01/25 10:30:06;;;;;;;0.30;0.30;;;15.30;64.10;;;;;;6305761;22;19999;-74
2021/01/25 10:32:33;;;;;;;0.47;0.30;;;15.30;64.10;;;;;;6294432;22;20008;-75
2021/01/25 10:34:59;;;;;;;0.60;0.38;;;15.30;64.10;;;;;;6305465;22;20004;-73
2021/01/25 10:37:28;;;;;;;0.30;0.30;;;15.30;64.00;;;;;;6306573;22;20056;-74
2021/01/25 10:39:58;;;;;;;0.40;0.35;;;15.30;64.10;;;;;;6305580;22;20358;-73
2021/01/25 10:42:24;;;;;;;0.30;0.30;;;15.30;64.10;;;;;;6306099;22;19999;-73
2021/01/25 10:44:50;;;;;;;0.20;0.20;;;15.30;64.00;;;;;;6306396;22;20037;-74
2021/01/25 10:47:18;;;;;;;0.20;0.20;;;15.30;64.00;;;;;;6306104;22;20000;-73
2021/01/25 10:49:49;;;;;;;0.20;0.20;;;15.30;64.00;;;;;;6306702;22;20019;-73
2021/01/25 10:52:16;;;;;;;0.40;0.30;;;15.30;64.10;;;;;;6307368;22;20049;-73
2021/01/25 10:54:54;;;;;;;0.30;0.30;;;15.30;64.00;;;;;;6304595;22;20030;-74
2021/01/25 10:57:27;;;;;;;0.20;0.20;;;15.30;64.10;;;;;;6307157;22;19999;-74
2021/01/25 10:59:57;;;;;;;0.57;0.40;;;15.30;64.10;;;;;;6304495;22;19999;-74
2021/01/25 11:02:23;;;;;;;1.02;0.40;;;15.30;64.00;;;;;;6305607;22;20003;-74
2021/01/25 11:04:58;;;;;;;0.50;0.30;;;15.30;63.40;;;;;;6305429;22;20077;-75
2021/01/25 11:07:24;;;;;;;0.90;0.40;;;15.30;62.20;;;;;;6278616;22;20306;-75
2021/01/25 11:09:50;;;;;;;1.38;1.20;;;15.40;61.60;;;;;;6306188;22;20001;-72
2021/01/25 11:12:16;;;;;;;1.45;0.50;;;15.50;61.10;;;;;;6303521;22;19999;-71
2021/01/25 11:14:46;;;;;;;12.55;0.65;;;15.50;61.40;;;;;;6303624;22;20014;-74
2021/01/25 11:17:17;;;;;;;1.35;0.70;;;15.50;62.50;;;;;;6303440;22;20002;-74
2021/01/25 11:19:42;;;;;;;0.25;0.20;;;15.60;62.80;;;;;;6306257;22;19999;-73
2021/01/25 11:22:08;;;;;;;0.73;0.40;;;15.60;63.50;;;;;;6303524;22;20460;-73
2021/01/25 11:24:39;;;;;;;0.40;0.40;;;15.70;64.50;;;;;;6304427;22;20003;-73
2021/01/25 11:27:07;;;;;;;0.45;0.35;;;15.70;66.30;;;;;;6301354;22;20035;-74
2021/01/25 11:29:37;;;;;;;;;;;15.80;67.90;;;;;;6305031;22;19995;-74
2021/01/25 11:32:05;;;;;;;1.27;0.57;;;15.80;69.60;;;;;;6302516;22;19907;-74
2021/01/25 11:34:31;;;;;;;0.77;0.53;;;15.80;72.20;;;;;;6303977;22;20303;-74
2021/01/25 11:36:57;;;;;;;1.27;0.50;;;15.80;74.00;;;;;;6275273;22;20007;-74
2021/01/25 11:39:28;;;;;;;3.33;0.73;;;15.90;75.70;;;;;;6303518;22;20003;-72
2021/01/25 11:41:58;;;;;;;2.15;0.77;;;15.90;77.00;;;;;;6302682;22;20006;-73
2021/01/25 11:44:24;;;;;;;1.25;0.55;;;15.90;77.60;;;;;;6303742;22;20501;-74
2021/01/25 11:46:50;;;;;;;3.80;0.80;;;16.00;79.50;;;;;;6303991;22;20444;-73
2021/01/25 11:49:16;;;;;;;3.42;0.80;;;16.00;80.10;;;;;;6302800;22;20030;-75
2021/01/25 11:51:43;;;;;;;3.92;0.90;;;16.10;81.60;;;;;;6303234;22;19996;-74
2021/01/25 11:54:10;;;;;;;6.13;1.10;;;16.10;82.80;;;;;;6302845;22;19995;-74
2021/01/25 11:56:40;;;;;;;7.03;1.38;;;16.10;83.10;;;;;;6304589;22;20003;-73
2021/01/25 11:59:06;;;;;;;18.58;1.90;;;16.20;84.00;;;;;;6303880;22;20417;-74
2021/01/25 12:01:36;;;;;;;5.65;1.35;;;16.20;84.60;;;;;;6302503;22;20371;-74
2021/01/25 12:16:27;;;;;;;5.25;0.85;;;16.00;73.50;;;;;;5752057;22;20134;-73
2021/01/25 20:22:05;;;;;;;0.88;0.43;;;15.40;63.10;;;;;;6346977;22;20430;-73
2021/01/25 20:24:34;;;;;;;0.73;0.50;;;15.30;63.00;;;;;;6334420;22;20437;-76
2021/01/25 20:26:59;;;;;;;0.70;0.38;;;15.30;63.30;;;;;;6311479;22;20013;-75
2021/01/25 20:29:30;;;;;;;4.10;0.40;;;15.30;63.20;;;;;;6310800;22;20003;-75
2021/01/25 20:31:55;;;;;;;1.80;0.60;;;15.30;62.90;;;;;;6310487;22;20320;-74
2021/01/25 20:34:30;;;;;;;1.02;0.50;;;15.30;62.60;;;;;;6337398;22;20007;-75
2021/01/25 20:37:00;;;;;;;1.00;0.55;;;15.30;62.60;;;;;;6338238;22;19999;-75
2021/01/25 20:39:28;;;;;;;1.05;0.50;;;15.30;62.40;;;;;;6337670;22;20395;-74
2021/01/25 20:41:54;;;;;;;1.40;0.38;;;15.30;62.40;;;;;;6335210;22;20341;-75
2021/01/25 20:44:19;;;;;;;3.30;0.50;;;15.30;62.50;;;;;;6337457;22;19995;-74
2021/01/25 20:46:56;;;;;;;0.57;0.28;;;15.30;62.20;;;;;;6310689;22;20591;-74
2021/01/25 20:49:30;;;;;;;0.60;0.40;;;15.30;62.30;;;;;;6311580;22;19999;-74
2021/01/25 20:52:00;;;;;;;1.48;0.40;;;15.30;62.20;;;;;;6339459;22;20053;-74
2021/01/25 20:54:32;;;;;;;0.55;0.30;;;15.30;62.20;;;;;;6338965;22;20002;-74
2021/01/25 20:56:58;;;;;;;2.72;0.45;;;15.30;62.00;;;;;;6311739;22;19998;-75
2021/01/25 20:59:24;;;;;;;2.83;0.63;;;15.30;61.90;;;;;;6339587;22;20052;-75
2021/01/25 21:01:52;;;;;;;2.47;0.50;;;15.30;61.90;;;;;;6311300;22;20029;-74
2021/01/25 21:04:22;;;;;;;0.82;0.47;;;15.30;61.90;;;;;;6336393;22;20312;-74
2021/01/25 21:06:47;;;;;;;0.57;0.50;;;15.30;61.90;;;;;;6338024;22;20030;-74
2021/01/25 21:09:18;;;;;;;0.73;0.50;;;15.30;61.80;;;;;;6336883;22;20003;-74
2021/01/25 21:11:50;;;;;;;0.50;0.50;;;15.30;61.80;;;;;;6329241;22;20006;-74
2021/01/25 21:14:16;;;;;;;0.40;0.30;;;15.30;61.80;;;;;;6338736;22;19998;-74
2021/01/25 21:16:42;;;;;;;1.15;0.50;;;15.30;61.90;;;;;;6339002;22;20009;-73
2021/01/25 21:19:08;;;;;;;0.50;0.43;;;15.30;61.90;;;;;;6338951;22;20030;-74
2021/01/25 21:21:34;;;;;;;0.45;0.30;;;15.20;61.90;;;;;;6339408;22;20406;-74